Flight Track Log - Related Links

Times and Time Zones

All times are in EDT time to prevent confusion due to time zone crossing. See the CTL62 flight status page for this flight to view local times or setup timezone preferences in your user account.

Time Position Orientation Groundspeed Altitude Reporting Facility
EDT Latitude Longitude Course Direction KTS MPH feet Rate Location/Type
Sat 01:55:42 AM 42.1333 -87.7000 124° Southeast 158 182 2,200  Level Chicago TRACON
Sat 01:56:36 AM 42.1167 -87.6667 124° Southeast 154 177 2,600 565 Climbing Chicago TRACON
Sat 01:57:07 AM 42.1211 -87.6350 79° East 159 183 3,000 791 Climbing Chicago Center
Sat 01:58:07 AM 42.1244 -87.5797 85° East 153 176 3,800 793 Climbing Chicago Center
Sat 01:59:08 AM 42.1231 -87.5272 92° East 145 167 4,600 793 Climbing Chicago Center
Sat 02:00:08 AM 42.1200 -87.4778 95° East 134 154 5,400 750 Climbing Chicago Center
Sat 02:01:08 AM 42.1022 -87.4381 121° Southeast 130 150 6,100 700 Climbing Chicago Center
Sat 02:02:08 AM 42.0842 -87.3950 119° Southeast 132 152 6,800 650 Climbing Chicago Center
Sat 02:03:08 AM 42.0661 -87.3544 121° Southeast 129 148 7,400 550 Climbing Chicago Center
Sat 02:04:08 AM 42.0458 -87.3114 122° Southeast 135 155 7,900 545 Climbing Chicago Center
Sat 02:05:09 AM 42.0269 -87.2683 121° Southeast 134 154 8,500 545 Climbing Chicago Center
Sat 02:06:09 AM 42.0106 -87.2267 118° Southeast 128 147 9,000 300 Climbing Chicago Center
Sat 02:07:09 AM 41.9931 -87.1803 117° Southeast 137 158 9,100  Climbing Chicago Center
Sat 02:08:09 AM 41.9694 -87.1256 120° Southeast 164 189 9,000 -50 Descending Chicago Center
Sat 02:09:09 AM 41.9433 -87.0725 123° Southeast 170 196 9,000 50 Level Chicago Center
Sat 02:10:10 AM 41.9194 -87.0172 120° Southeast 172 198 9,100 50 Climbing Chicago Center
Sat 02:11:10 AM 41.8947 -86.9597 120° Southeast 176 203 9,100  Level Chicago Center
Sat 02:12:10 AM 41.8694 -86.9036 121° Southeast 178 205 9,100  Level Chicago Center
Sat 02:13:10 AM 41.8442 -86.8467 121° Southeast 177 204 9,100 -50 Level Chicago Center
Sat 02:14:10 AM 41.8186 -86.7922 122° Southeast 175 201 9,000  Descending Chicago Center
Sat 02:15:10 AM 41.7936 -86.7383 122° Southeast 172 198 9,100 50 Climbing Chicago Center
Sat 02:16:11 AM 41.7650 -86.6747 121° Southeast 176 203 9,100  Level Chicago Center
Sat 02:17:11 AM 41.7406 -86.6203 121° Southeast 172 198 9,100 -50 Level Chicago Center
Sat 02:18:11 AM 41.7161 -86.5681 122° Southeast 168 193 9,000  Descending Chicago Center
Sat 02:19:11 AM 41.6931 -86.5144 120° Southeast 167 192 9,100 50 Climbing Chicago Center
Sat 02:20:11 AM 41.6669 -86.4608 123° Southeast 172 198 9,100  Level Chicago Center
Sat 02:21:11 AM 41.6411 -86.4064 122° Southeast 174 200 9,100 -99 Level Chicago Center
Sat 02:22:12 AM 41.6150 -86.3503 122° Southeast 178 205 8,900 -99 Descending Chicago Center
Sat 02:23:12 AM 41.5903 -86.2956 121° Southeast 176 203 8,900 50 Level Chicago Center
Sat 02:24:12 AM 41.5656 -86.2392 120° Southeast 177 204 9,000 100 Climbing Chicago Center
Sat 02:25:12 AM 41.5408 -86.1828 120° Southeast 177 204 9,100 -50 Climbing Chicago Center
Sat 02:26:12 AM 41.5156 -86.1269 121° Southeast 176 203 8,900 -100 Descending Chicago Center
Sat 02:27:12 AM 41.4906 -86.0703 120° Southeast 179 206 8,900  Level Chicago Center
Sat 02:28:13 AM 41.4647 -86.0153 122° Southeast 177 204 8,900  Level Chicago Center
Sat 02:29:13 AM 41.4383 -85.9606 123° Southeast 176 203 8,900  Level Chicago Center
Sat 02:30:13 AM 41.4133 -85.9056 121° Southeast 175 201 8,900  Level Chicago Center
Sat 02:31:13 AM 41.3856 -85.8506 124° Southeast 178 205 8,900  Level Chicago Center
Sat 02:32:13 AM 41.3592 -85.7972 123° Southeast 175 201 8,900  Level Chicago Center
Sat 02:33:13 AM 41.3328 -85.7431 123° Southeast 176 203 8,900  Level Chicago Center
Sat 02:34:14 AM 41.3072 -85.6883 122° Southeast 175 201 8,900 50 Level Chicago Center
Sat 02:35:14 AM 41.2833 -85.6331 120° Southeast 175 201 9,000 50 Climbing Chicago Center
Sat 02:36:14 AM 41.2581 -85.5772 121° Southeast 176 203 9,000  Level Chicago Center
Sat 02:37:14 AM 41.2328 -85.5200 120° Southeast 180 207 9,000  Level Chicago Center
Sat 02:38:14 AM 41.2064 -85.4658 123° Southeast 177 204 9,000  Level Chicago Center
Sat 02:39:14 AM 41.1817 -85.4125 122° Southeast 171 197 9,000  Level Chicago Center
Sat 02:40:15 AM 41.1564 -85.3592 122° Southeast 171 197 9,000  Level Chicago Center
Sat 02:41:15 AM 41.1303 -85.3011 121° Southeast 180 207 9,000 50 Level Chicago Center
Sat 02:42:15 AM 41.1072 -85.2464 119° Southeast 175 201 9,100  Climbing Chicago Center
Sat 02:43:15 AM 41.0822 -85.1914 121° Southeast 174 200 9,000 -50 Descending Chicago Center
Sat 02:44:15 AM 41.0575 -85.1356 120° Southeast 177 204 9,000  Level Chicago Center
Sat 02:45:15 AM 41.0325 -85.0806 121° Southeast 175 201 9,000 -50 Level Chicago Center
Sat 02:46:16 AM 41.0100 -85.0244 118° Southeast 174 200 8,900 50 Descending Chicago Center
Sat 02:47:16 AM 40.9836 -84.9708 123° Southeast 174 200 9,100 150 Climbing Chicago Center
Sat 02:48:16 AM 40.9586 -84.9183 122° Southeast 172 198 9,200  Climbing Chicago Center
Sat 02:49:16 AM 40.9322 -84.8650 123° Southeast 172 198 9,100 -100 Descending Chicago Center
Sat 02:50:16 AM 40.9050 -84.8097 123° Southeast 177 204 9,000 -50 Descending Chicago Center
Sat 02:51:16 AM 40.8733 -84.7450 123° Southeast 177 204 9,000 50 Level Chicago Center
Sat 02:52:16 AM 40.8486 -84.6908 121° Southeast 174 200 9,100  Climbing Chicago Center
Sat 02:53:16 AM 40.8231 -84.6383 123° Southeast 172 198 9,000  Descending Chicago Center
Sat 02:54:17 AM 40.7983 -84.5844 121° Southeast 172 198 9,100  Climbing Chicago Center
Sat 02:55:17 AM 40.7753 -84.5297 119° Southeast 171 197 9,000 -50 Descending Chicago Center
Sat 02:56:17 AM 40.7489 -84.4769 123° Southeast 172 198 9,000  Level Chicago Center
Sat 02:57:26 AM 40.7217 -84.4206 122° Southeast 173 199 9,000  Level Indianapolis Center
Sat 02:58:19 AM 40.6953 -84.3711 125° Southeast 171 197 9,000  Level Indianapolis Center
Sat 02:59:20 AM 40.6681 -84.3178 124° Southeast 173 199 9,000  Level Indianapolis Center
Sat 03:00:20 AM 40.6431 -84.2650 122° Southeast 171 197 9,000 -50 Level Indianapolis Center
Sat 03:01:21 AM 40.6178 -84.2119 122° Southeast 172 198 8,900 -49 Descending Indianapolis Center
Sat 03:02:22 AM 40.5906 -84.1561 123° Southeast 169 194 8,900 50 Level Indianapolis Center
Sat 03:03:22 AM 40.5633 -84.1031 124° Southeast 170 196 9,000 50 Climbing Indianapolis Center
Sat 03:04:23 AM 40.5381 -84.0503 122° Southeast 170 196 9,000  Level Indianapolis Center
Sat 03:05:23 AM 40.5125 -84.0003 124° Southeast 169 194 9,000  Level Indianapolis Center
Sat 03:06:24 AM 40.4872 -83.9475 122° Southeast 171 197 9,000  Level Indianapolis Center
Sat 03:07:25 AM 40.4619 -83.8950 122° Southeast 171 197 9,000  Level Indianapolis Center
Sat 03:08:25 AM 40.4367 -83.8394 121° Southeast 174 200 9,000 -149 Level Indianapolis Center
Sat 03:09:26 AM 40.4094 -83.7839 123° Southeast 175 201 8,700 -488 Descending Indianapolis Center
Sat 03:10:28 AM 40.3825 -83.7211 119° Southeast 186 214 8,000 -639 Descending Indianapolis Center
Sat 03:11:28 AM 40.3569 -83.6683 122° Southeast 198 228 7,400 -600 Descending Indianapolis Center
Sat 03:12:28 AM 40.3233 -83.6069 126° Southeast 204 235 6,800 -700 Descending Indianapolis Center
Sat 03:13:28 AM 40.2944 -83.5436 121° Southeast 201 231 6,000 -600 Descending Indianapolis Center
Sat 03:14:28 AM 40.2664 -83.4822 121° Southeast 196 226 5,600 -500 Descending Indianapolis Center
Sat 03:15:28 AM 40.2381 -83.4236 122° Southeast 192 221 5,000 -595 Descending Indianapolis Center
Sat 03:16:29 AM 40.2108 -83.3639 121° Southeast 189 217 4,400 -893 Descending Indianapolis Center
Sat 03:17:29 AM 40.1842 -83.3028 120° Southeast 190 219 3,200 -1,200 Descending Indianapolis Center
Sat 03:19:00 AM 40.1457 -83.2253 123° Southeast  Level FlightAware Approximate
Sat 03:26:00 AM 40.0798 -83.0732 123° Southeast  Level Estimated
Sat 03:27:00 AM 40.0798 -83.0732 123° Southeast  Level Estimated
Sat 03:28:00 AM 40.0798 -83.0732 123° Southeast  Level Estimated

Login

Don't have an account? Register now (free) for customized features, flight alerts, and more!